Britt, Minnesota
Current Conditions -  °F | °C
As of 2:34 PM on Saturday 20 Dec 2014 (Local Time) from KCQM Reporting Station
Haze Haze  
Wind Chill: 21°   Ceiling: 900
Heat Index: 28°   Visibility: 5mi
Dew Point: 27°   Wind: 7mph
Humidity: 93%   Direction: 180°S
Pressure: 30.03"   Gusts: NA
Location:  47.64°N, 92.53°W
Report Text: KCQM 202034Z AUTO 18006KT 5SM BR OVC009 M02/M03 A3003 RMK AO2
Loading
Personal Weather Stations






























Interactive Weather Map New forecast layout! Learn more

10-Day Weather Forecast

Advertisements
Track Severe Weather on mobile